York, PA (17404)

23:28 EDT le 27 juillet 2015 (GMT -0400)
Hearthridge Lane | | Change Station
CLOSE
Current Station
Stations météorologiques personnelles
Location: York, PA
Altitude: 479 ft
Stations météo à proximité

Alt. 479 ft 40.00 °N, 76.75 °W | Updated 8 minutes ago

Ciel dégagé
Ciel dégagé
74.9 ° F
Paraît 74 ° F
N
0.0
Vent Variable Vent de ENE
Gusts 0.0 mph

Aujourd'hui
Haut(e) -- | Bas -- ° F
--% Risque de précip.
Hier
Haut(e) -- | Bas -- ° F
Precip. -- pouce
6:00 AM 8:25 PM
Lune gibbeuse croissante, 86% visible
Pression 30.02 pouce
Visibilité 5.0 Miles terrestres
Nuages Ciel dégagé
indice de chaleur 74 ° F
Point de rosée 72 ° F
Humidité 89%
Précipitations 1.51 pouce
Profondeur de la couche neigeuse Non disponible.
UV 0 sur 12
Pollen 3.70 sur 12
Qualité de l'air Non disponible.
Flu Activity Non disponible.
METAR KTHV 280253Z AUTO 00000KT 5SM BR CLR 23/21 A3003 RMK AO2 SLP166 T02280211 51014

More Conditions Fewer Conditions

Pression 30.02 pouce
Visibilité 5.0 Miles terrestres
Nuages Ciel dégagé
indice de chaleur 74 ° F
Point de rosée 72 ° F
Humidité 89%
Précipitations 1.51 pouce
Profondeur de la couche neigeuse Non disponible.
UV 0 sur 12
Pollen 3.70 sur 12
Qualité de l'air Non disponible.
Flu Activity Non disponible.
METAR KTHV 280253Z AUTO 00000KT 5SM BR CLR 23/21 A3003 RMK AO2 SLP166 T02280211 51014

More Conditions Fewer Conditions

10-Day Weather Forecast

×

Almanac

Astronomie

Jul. 27, 2015 Lever Coucher
Temps réel
Crépuscule civil
Crépuscule nautique
Crépuscule astronomique
Lune
Durée de lumière visible
Longueur du jour
Tomorrow will be .
, % of the Moon is Illuminated

Extrêmes aujourd'hui

State Highs State Lows

Community

WunderPhotos

Upload Photos

1,841,785 Photos téléchargées !

WunderBlogs® & News

Nearby

Qualité de l'air

  Qualité de l'air Indice de la qualité de l'air Polluant
Not available.

Épaisseur de neige

Station Depth Altitude

Activité sismique

Ville Distance Mag. Time & Date
Minimum magnitude displayed is 2.5.

Températures des eaux côtières

Lieu Température

Stations

Stations météo à proximité

Emplacement de la station Température Refroidissement éolien Point de rosée Humidité Vent Precip. Alt. Mise à jour Type